createdAt,value
2022-11-15T00:02:16.825Z,9.50
2022-11-15T00:05:03.932Z,9.50
2022-11-15T00:07:58.077Z,9.48
2022-11-15T00:10:56.130Z,9.50
2022-11-15T00:13:43.095Z,9.40
2022-11-15T00:16:30.194Z,9.40
2022-11-15T00:19:17.452Z,9.40
2022-11-15T00:22:04.428Z,9.40
2022-11-15T00:24:51.486Z,9.40
2022-11-15T00:27:38.055Z,9.40
2022-11-15T00:30:25.539Z,9.42
2022-11-15T00:33:12.401Z,9.50
2022-11-15T00:36:07.997Z,9.40
2022-11-15T00:38:54.589Z,9.38
2022-11-15T00:41:41.689Z,9.30
2022-11-15T00:44:28.513Z,9.40
2022-11-15T00:47:15.260Z,9.40
2022-11-15T00:50:02.082Z,9.30
2022-11-15T00:52:49.029Z,9.38
2022-11-15T00:55:36.292Z,9.40
2022-11-15T00:58:23.399Z,9.38
2022-11-15T01:01:12.799Z,9.30
2022-11-15T01:04:01.505Z,9.30
2022-11-15T01:06:48.420Z,9.34
2022-11-15T01:09:35.298Z,9.32
2022-11-15T01:12:22.367Z,9.30
2022-11-15T01:15:09.689Z,9.30
2022-11-15T01:17:56.340Z,9.30
2022-11-15T01:20:44.046Z,9.30
2022-11-15T01:23:31.360Z,9.30
2022-11-15T01:26:18.370Z,9.36
2022-11-15T01:29:05.550Z,9.40
2022-11-15T01:31:54.543Z,9.40
2022-11-15T01:34:41.379Z,9.40
2022-11-15T01:37:28.416Z,9.40
2022-11-15T01:40:15.568Z,9.40
2022-11-15T01:43:23.403Z,9.40
2022-11-15T01:46:25.566Z,9.50
2022-11-15T01:49:21.569Z,9.50
2022-11-15T01:52:11.934Z,9.48
2022-11-15T01:55:12.756Z,9.40
2022-11-15T01:58:02.738Z,9.40
2022-11-15T02:00:51.403Z,9.40
2022-11-15T02:03:53.753Z,9.40
2022-11-15T02:06:43.882Z,9.40
2022-11-15T02:09:31.026Z,9.40
2022-11-15T02:12:22.466Z,9.50
2022-11-15T02:15:11.392Z,9.40
2022-11-15T02:18:02.970Z,9.40
2022-11-15T02:21:09.383Z,9.40
2022-11-15T02:24:05.582Z,9.50
2022-11-15T02:27:37.532Z,9.50
2022-11-15T02:30:43.082Z,9.50
2022-11-15T02:33:35.501Z,9.50
2022-11-15T02:36:31.305Z,9.50
2022-11-15T02:39:33.122Z,9.50
2022-11-15T02:42:43.263Z,9.50
2022-11-15T02:45:36.788Z,9.44
2022-11-15T02:48:24.868Z,9.40
2022-11-15T02:51:12.948Z,9.40
2022-11-15T02:53:59.962Z,9.30
2022-11-15T02:56:47.444Z,9.36
2022-11-15T03:00:02.248Z,9.40
2022-11-15T03:03:11.643Z,9.40
2022-11-15T03:06:07.264Z,9.40
2022-11-15T03:09:23.327Z,9.40
2022-11-15T03:12:27.230Z,9.42
2022-11-15T03:15:28.140Z,9.50
2022-11-15T03:18:29.108Z,9.50
2022-11-15T03:21:19.986Z,9.50
2022-11-15T03:24:08.861Z,9.50
2022-11-15T03:26:57.093Z,9.46
2022-11-15T03:29:53.574Z,9.40
2022-11-15T03:32:48.776Z,9.40
2022-11-15T03:35:40.558Z,9.40
2022-11-15T03:38:30.879Z,9.40
2022-11-15T03:41:26.163Z,9.40
2022-11-15T03:44:28.382Z,9.40
2022-11-15T03:47:44.817Z,9.40
2022-11-15T03:50:32.210Z,9.44
2022-11-15T03:53:19.009Z,9.44
2022-11-15T03:56:06.239Z,9.40
2022-11-15T03:58:53.395Z,9.40
2022-11-15T04:01:40.393Z,9.30
2022-11-15T04:04:27.196Z,9.30
2022-11-15T04:07:14.366Z,9.30
2022-11-15T04:10:04.029Z,9.30
2022-11-15T04:12:51.106Z,9.40
2022-11-15T04:15:38.388Z,9.40
2022-11-15T04:18:25.515Z,9.40
2022-11-15T04:21:30.696Z,9.40
2022-11-15T04:24:18.043Z,9.40
2022-11-15T04:27:04.889Z,9.40
2022-11-15T04:29:51.931Z,9.40
2022-11-15T04:32:39.020Z,9.30
2022-11-15T04:35:26.071Z,9.30
2022-11-15T04:38:13.054Z,9.36
2022-11-15T04:41:00.170Z,9.38
2022-11-15T04:43:46.783Z,9.38
2022-11-15T04:46:34.217Z,9.40
2022-11-15T04:49:20.944Z,9.44
2022-11-15T04:52:08.050Z,9.40
2022-11-15T04:54:55.200Z,9.40
2022-11-15T04:57:42.294Z,9.40
2022-11-15T05:00:30.429Z,9.40
2022-11-15T05:03:36.434Z,9.34
2022-11-15T05:06:23.782Z,9.34
2022-11-15T05:09:10.983Z,9.30
2022-11-15T05:11:58.074Z,9.30
2022-11-15T05:14:44.650Z,9.26
2022-11-15T05:17:31.671Z,9.30
2022-11-15T05:20:18.809Z,9.30
2022-11-15T05:23:05.424Z,9.22
2022-11-15T05:25:52.304Z,9.20
2022-11-15T05:28:39.345Z,9.18
2022-11-15T05:31:27.941Z,9.10
2022-11-15T05:34:14.824Z,9.10
2022-11-15T05:37:01.968Z,9.10
2022-11-15T05:39:49.129Z,9.00
2022-11-15T05:42:36.397Z,9.04
2022-11-15T05:45:26.898Z,9.10
2022-11-15T05:48:14.942Z,9.08
2022-11-15T05:51:02.768Z,9.10
2022-11-15T05:53:50.300Z,9.06
2022-11-15T05:56:37.151Z,9.08
2022-11-15T05:59:24.525Z,9.10
2022-11-15T06:02:12.584Z,9.10
2022-11-15T06:04:59.560Z,9.10
2022-11-15T06:07:46.607Z,9.10
2022-11-15T06:10:34.186Z,9.10
2022-11-15T06:13:21.120Z,9.10
2022-11-15T06:16:08.342Z,9.10
2022-11-15T06:18:55.402Z,9.06
2022-11-15T06:21:42.602Z,9.02
2022-11-15T06:24:29.507Z,9.02
2022-11-15T06:27:16.007Z,9.10
2022-11-15T06:30:02.802Z,9.10
2022-11-15T06:32:50.166Z,9.10
2022-11-15T06:35:37.757Z,9.16
2022-11-15T06:38:24.838Z,9.24
2022-11-15T06:41:18.953Z,9.30
2022-11-15T06:44:05.973Z,9.30
2022-11-15T06:46:53.095Z,9.32
2022-11-15T06:49:40.147Z,9.40
2022-11-15T06:52:33.587Z,9.40
2022-11-15T06:55:21.501Z,9.40
2022-11-15T06:58:08.562Z,9.40
2022-11-15T07:00:59.389Z,9.30
2022-11-15T07:03:47.341Z,9.28
2022-11-15T07:06:34.349Z,9.30
2022-11-15T07:09:21.103Z,9.32
2022-11-15T07:12:08.226Z,9.32
2022-11-15T07:14:55.154Z,9.40
2022-11-15T07:17:42.403Z,9.38
2022-11-15T07:20:29.363Z,9.40
2022-11-15T07:23:16.509Z,9.40
2022-11-15T07:26:03.652Z,9.30
2022-11-15T07:28:50.847Z,9.30
2022-11-15T07:31:37.946Z,9.30
2022-11-15T07:34:24.961Z,9.30
2022-11-15T07:37:12.316Z,9.20
2022-11-15T07:39:59.096Z,9.20
2022-11-15T07:42:54.376Z,9.20
2022-11-15T07:45:43.732Z,9.18
2022-11-15T07:48:42.868Z,9.10
2022-11-15T07:51:30.884Z,9.12
2022-11-15T07:54:18.031Z,9.10
2022-11-15T07:57:07.530Z,9.10
2022-11-15T07:59:55.010Z,9.10
2022-11-15T08:02:43.674Z,9.10
2022-11-15T08:05:30.856Z,9.10
2022-11-15T08:08:17.986Z,9.20
2022-11-15T08:11:05.263Z,9.20
2022-11-15T08:13:52.662Z,9.20
2022-11-15T08:16:39.683Z,9.20
2022-11-15T08:19:26.860Z,9.20
2022-11-15T08:22:13.964Z,9.20
2022-11-15T08:25:00.915Z,9.20
2022-11-15T08:27:48.072Z,9.22
2022-11-15T08:30:43.392Z,9.20
2022-11-15T08:33:31.090Z,9.20
2022-11-15T08:36:18.689Z,9.20
2022-11-15T08:39:06.273Z,9.20
2022-11-15T08:41:53.014Z,9.20
2022-11-15T08:44:40.160Z,9.28
2022-11-15T08:47:26.801Z,9.30
2022-11-15T08:50:13.830Z,9.30
2022-11-15T08:53:09.634Z,9.28
2022-11-15T08:55:56.825Z,9.24
2022-11-15T08:58:43.917Z,9.20
2022-11-15T09:01:31.101Z,9.20
2022-11-15T09:04:18.108Z,9.20
2022-11-15T09:07:05.293Z,9.30
2022-11-15T09:09:52.370Z,9.30
2022-11-15T09:12:39.062Z,9.30
2022-11-15T09:15:26.134Z,9.30
2022-11-15T09:18:13.265Z,9.30
2022-11-15T09:21:01.205Z,9.30
2022-11-15T09:23:48.063Z,9.30
2022-11-15T09:26:35.144Z,9.30
2022-11-15T09:29:22.258Z,9.30
2022-11-15T09:32:09.233Z,9.28
2022-11-15T09:34:55.930Z,9.28
2022-11-15T09:37:43.620Z,9.30
2022-11-15T09:40:37.018Z,9.30
2022-11-15T09:43:37.407Z,9.30
2022-11-15T09:46:39.216Z,9.30
2022-11-15T09:49:23.821Z,9.30
2022-11-15T09:51:59.430Z,9.30
2022-11-15T09:54:54.037Z,9.30
2022-11-15T09:57:31.620Z,9.30
2022-11-15T10:00:44.844Z,9.30
2022-11-15T10:03:13.508Z,9.30
2022-11-15T10:05:48.294Z,9.36
2022-11-15T10:08:33.294Z,9.34
2022-11-15T10:13:57.605Z,9.30
2022-11-15T10:17:08.991Z,9.30
2022-11-15T10:19:52.484Z,9.30
2022-11-15T10:22:32.682Z,9.30
2022-11-15T10:25:26.017Z,9.30
2022-11-15T10:28:07.341Z,9.28
2022-11-15T10:30:41.850Z,9.30
2022-11-15T10:33:23.766Z,9.30
2022-11-15T10:36:10.584Z,9.40
2022-11-15T10:38:53.839Z,9.34
2022-11-15T10:41:27.983Z,9.30
2022-11-15T10:44:08.585Z,9.30
2022-11-15T10:46:46.699Z,9.40
2022-11-15T10:49:28.966Z,9.40
2022-11-15T10:52:02.496Z,9.40
2022-11-15T10:54:55.209Z,9.40
2022-11-15T10:57:32.152Z,9.38
2022-11-15T11:00:22.148Z,9.32
2022-11-15T11:02:56.376Z,9.40
2022-11-15T11:05:27.940Z,9.40
2022-11-15T11:07:59.817Z,9.40
2022-11-15T11:10:50.559Z,9.40
2022-11-15T11:13:43.531Z,9.40
2022-11-15T11:16:14.754Z,9.38
2022-11-15T11:19:20.483Z,9.32
2022-11-15T11:22:13.155Z,9.30
2022-11-15T11:25:19.779Z,9.38
2022-11-15T11:28:05.886Z,9.30
2022-11-15T11:30:52.302Z,9.38
2022-11-15T11:33:32.818Z,9.40
2022-11-15T11:36:16.293Z,9.40
2022-11-15T11:39:07.901Z,9.40
2022-11-15T11:41:47.129Z,9.40
2022-11-15T11:44:49.638Z,9.40
2022-11-15T11:47:25.174Z,9.40
2022-11-15T11:50:15.543Z,9.40
2022-11-15T11:53:10.658Z,9.40
2022-11-15T11:55:48.825Z,9.40
2022-11-15T11:58:29.095Z,9.42
2022-11-15T12:01:14.224Z,9.40
2022-11-15T12:03:54.230Z,9.42
2022-11-15T12:06:31.466Z,9.44
2022-11-15T12:09:03.381Z,9.40
2022-11-15T12:12:02.536Z,9.40
2022-11-15T12:14:54.917Z,9.40
2022-11-15T12:17:26.649Z,9.40
2022-11-15T12:19:59.823Z,9.40
2022-11-15T12:22:46.039Z,9.42
2022-11-15T12:25:36.462Z,9.44
2022-11-15T12:28:20.909Z,9.44
2022-11-15T12:31:02.426Z,9.50
2022-11-15T12:33:37.745Z,9.50
2022-11-15T12:36:12.282Z,9.48
2022-11-15T12:39:00.241Z,9.50
2022-11-15T12:41:36.656Z,9.48
2022-11-15T12:44:11.328Z,9.50
2022-11-15T12:46:39.875Z,9.54
2022-11-15T12:49:29.351Z,9.56
2022-11-15T12:51:57.714Z,9.60
2022-11-15T12:54:26.100Z,9.60
2022-11-15T12:57:09.592Z,9.56
2022-11-15T13:00:05.276Z,9.50
2022-11-15T13:02:49.641Z,9.50
2022-11-15T13:05:23.307Z,9.50
2022-11-15T13:07:58.261Z,9.58
2022-11-15T13:10:28.139Z,9.60
2022-11-15T13:13:10.575Z,9.60
2022-11-15T13:15:55.078Z,9.58
2022-11-15T13:18:31.129Z,9.52
2022-11-15T13:21:03.003Z,9.50
2022-11-15T13:23:32.413Z,9.50
2022-11-15T13:26:03.990Z,9.50
2022-11-15T13:28:38.724Z,9.50
2022-11-15T13:31:22.503Z,9.50
2022-11-15T13:33:51.475Z,9.50
2022-11-15T13:36:34.524Z,9.50
2022-11-15T13:39:14.284Z,9.50
2022-11-15T13:41:49.382Z,9.50
2022-11-15T13:44:24.995Z,9.56
2022-11-15T13:47:04.324Z,9.60
2022-11-15T13:49:34.760Z,9.60
2022-11-15T13:52:07.558Z,9.54
2022-11-15T13:54:45.507Z,9.50
2022-11-15T13:57:24.620Z,9.50
2022-11-15T13:59:56.414Z,9.50
2022-11-15T14:02:31.303Z,9.48
2022-11-15T14:05:22.207Z,9.40
2022-11-15T14:07:56.084Z,9.40
2022-11-15T14:10:33.654Z,9.34
2022-11-15T14:13:02.544Z,9.30
2022-11-15T14:15:38.894Z,9.20
2022-11-15T14:18:07.727Z,9.20
2022-11-15T14:20:40.503Z,9.12
2022-11-15T14:23:26.997Z,9.10
2022-11-15T14:25:57.677Z,9.10
2022-11-15T14:28:26.236Z,9.10
2022-11-15T14:30:56.737Z,9.10
2022-11-15T14:33:34.501Z,9.10
2022-11-15T14:36:14.976Z,9.10
2022-11-15T14:38:46.989Z,9.10
2022-11-15T14:41:20.644Z,9.10
2022-11-15T14:43:49.935Z,9.10
2022-11-15T14:46:19.283Z,9.00
2022-11-15T14:48:47.846Z,9.06
2022-11-15T14:51:19.804Z,9.00
2022-11-15T14:53:48.803Z,9.00
2022-11-15T14:56:17.901Z,9.00
2022-11-15T14:58:46.351Z,9.04
2022-11-15T15:01:24.667Z,9.06
2022-11-15T15:03:56.950Z,9.00
2022-11-15T15:06:25.879Z,9.00
2022-11-15T15:08:54.369Z,8.94
2022-11-15T15:11:29.407Z,8.90
2022-11-15T15:13:59.503Z,8.90
2022-11-15T15:16:28.488Z,8.90
2022-11-15T15:18:57.031Z,8.90
2022-11-15T15:21:33.601Z,8.90
2022-11-15T15:24:04.258Z,8.90
2022-11-15T15:26:37.615Z,8.88
2022-11-15T15:29:06.340Z,8.80
2022-11-15T15:31:34.807Z,8.88
2022-11-15T15:34:05.829Z,8.82
2022-11-15T15:36:34.360Z,8.80
2022-11-15T15:39:02.805Z,8.80
2022-11-15T15:41:31.320Z,8.80
2022-11-15T15:43:59.784Z,8.80
2022-11-15T15:46:28.710Z,8.80
2022-11-15T15:48:57.355Z,8.80
2022-11-15T15:51:25.924Z,8.80
2022-11-15T15:53:58.273Z,8.80
2022-11-15T15:56:26.837Z,8.82
2022-11-15T15:58:56.615Z,8.86
2022-11-15T16:01:26.024Z,8.80
2022-11-15T16:03:54.690Z,8.90
2022-11-15T16:06:45.564Z,8.90
2022-11-15T16:09:19.700Z,8.94
2022-11-15T16:11:48.618Z,9.00
2022-11-15T16:14:17.145Z,9.00
2022-11-15T16:16:45.573Z,9.00
2022-11-15T16:19:14.052Z,9.00
2022-11-15T16:21:42.555Z,9.00
2022-11-15T16:24:11.117Z,8.90
2022-11-15T16:26:39.922Z,8.90
2022-11-15T16:29:10.477Z,8.90
2022-11-15T16:31:39.023Z,9.00
2022-11-15T16:34:07.716Z,9.00
2022-11-15T16:36:36.804Z,9.02
2022-11-15T16:39:05.359Z,9.06
2022-11-15T16:41:33.896Z,9.10
2022-11-15T16:44:02.402Z,9.10
2022-11-15T16:46:30.911Z,9.04
2022-11-15T16:48:59.671Z,9.08
2022-11-15T16:51:29.486Z,9.10
2022-11-15T16:53:57.895Z,9.10
2022-11-15T16:56:29.605Z,9.10
2022-11-15T16:58:59.723Z,9.14
2022-11-15T17:01:36.512Z,9.20
2022-11-15T17:04:13.099Z,9.20
2022-11-15T17:06:43.685Z,9.20
2022-11-15T17:09:20.253Z,9.20
2022-11-15T17:11:48.696Z,9.20
2022-11-15T17:14:17.818Z,9.18
2022-11-15T17:16:46.579Z,9.10
2022-11-15T17:19:16.883Z,9.10
2022-11-15T17:21:46.501Z,9.10
2022-11-15T17:24:15.201Z,9.10
2022-11-15T17:26:43.646Z,9.16
2022-11-15T17:29:12.071Z,9.16
2022-11-15T17:31:40.538Z,9.10
2022-11-15T17:34:09.119Z,9.10
2022-11-15T17:36:37.631Z,9.10
2022-11-15T17:39:06.125Z,9.10
2022-11-15T17:41:34.805Z,9.10
2022-11-15T17:44:03.840Z,9.10
2022-11-15T17:46:33.715Z,9.12
2022-11-15T17:49:02.380Z,9.20
2022-11-15T17:51:30.809Z,9.16
2022-11-15T17:53:59.375Z,9.10
2022-11-15T17:56:31.054Z,9.10
2022-11-15T17:59:00.828Z,9.10
2022-11-15T18:01:32.093Z,9.10
2022-11-15T18:04:02.499Z,9.20
2022-11-15T18:06:33.752Z,9.20
2022-11-15T18:09:03.250Z,9.20
2022-11-15T18:11:38.604Z,9.12
2022-11-15T18:14:10.707Z,9.10
2022-11-15T18:16:40.463Z,9.06
2022-11-15T18:19:13.464Z,9.08
2022-11-15T18:21:56.469Z,9.10
2022-11-15T18:24:28.351Z,9.14
2022-11-15T18:26:57.960Z,9.10
2022-11-15T18:29:26.753Z,9.02
2022-11-15T18:31:56.070Z,9.00
2022-11-15T18:34:32.394Z,8.94
2022-11-15T18:37:02.994Z,8.90
2022-11-15T18:39:32.273Z,8.96
2022-11-15T18:42:01.063Z,8.90
2022-11-15T18:44:30.638Z,8.88
2022-11-15T18:46:59.454Z,8.86
2022-11-15T18:49:27.836Z,8.80
2022-11-15T18:51:57.195Z,8.80
2022-11-15T18:54:29.788Z,8.80
2022-11-15T18:56:59.896Z,8.80
2022-11-15T18:59:29.614Z,8.80
2022-11-15T19:01:58.031Z,8.82
2022-11-15T19:04:26.671Z,8.90
2022-11-15T19:06:55.305Z,8.92
2022-11-15T19:09:27.464Z,8.96
2022-11-15T19:11:56.024Z,9.00
2022-11-15T19:14:26.934Z,9.00
2022-11-15T19:16:55.872Z,9.02
2022-11-15T19:19:28.510Z,9.00
2022-11-15T19:21:57.851Z,9.00
2022-11-15T19:24:27.429Z,9.00
2022-11-15T19:26:55.939Z,9.00
2022-11-15T19:29:24.436Z,9.00
2022-11-15T19:31:52.888Z,9.04
2022-11-15T19:34:21.420Z,9.08
2022-11-15T19:36:49.920Z,9.04
2022-11-15T19:39:18.747Z,9.00
2022-11-15T19:41:47.889Z,9.00
2022-11-15T19:44:16.435Z,9.00
2022-11-15T19:46:44.833Z,9.06
2022-11-15T19:49:13.299Z,9.10
2022-11-15T19:51:42.926Z,9.02
2022-11-15T19:54:11.547Z,9.02
2022-11-15T19:56:40.317Z,9.00
2022-11-15T19:59:11.724Z,8.90
2022-11-15T20:01:40.592Z,8.90
2022-11-15T20:04:10.342Z,8.80
2022-11-15T20:06:41.563Z,8.80
2022-11-15T20:09:14.916Z,8.70
2022-11-15T20:11:43.436Z,8.62
2022-11-15T20:14:13.307Z,8.60
2022-11-15T20:16:42.146Z,8.52
2022-11-15T20:19:12.765Z,8.50
2022-11-15T20:21:41.830Z,8.58
2022-11-15T20:24:11.021Z,8.50
2022-11-15T20:26:39.686Z,8.50
2022-11-15T20:29:10.199Z,8.52
2022-11-15T20:31:38.775Z,8.60
2022-11-15T20:34:07.537Z,8.60
2022-11-15T20:36:36.077Z,8.54
2022-11-15T20:39:04.647Z,8.50
2022-11-15T20:41:33.303Z,8.50
2022-11-15T20:44:03.320Z,8.50
2022-11-15T20:46:31.911Z,8.54
2022-11-15T20:49:00.505Z,8.50
2022-11-15T20:51:29.090Z,8.50
2022-11-15T20:53:57.550Z,8.50
2022-11-15T20:56:26.100Z,8.50
2022-11-15T20:58:55.047Z,8.60
2022-11-15T21:01:24.963Z,8.60
2022-11-15T21:03:57.674Z,8.60
2022-11-15T21:06:27.092Z,8.60
2022-11-15T21:09:14.179Z,8.60
2022-11-15T21:12:01.453Z,8.70
2022-11-15T21:14:30.216Z,8.70
2022-11-15T21:16:59.623Z,8.68
2022-11-15T21:19:34.022Z,8.60
2022-11-15T21:22:06.703Z,8.60
2022-11-15T21:24:35.162Z,8.60
2022-11-15T21:27:04.062Z,8.68
2022-11-15T21:29:38.817Z,8.70
2022-11-15T21:32:08.933Z,8.70
2022-11-15T21:34:37.692Z,8.60
2022-11-15T21:37:06.954Z,8.60
2022-11-15T21:39:35.677Z,8.50
2022-11-15T21:42:04.628Z,8.48
2022-11-15T21:44:33.468Z,8.42
2022-11-15T21:47:01.877Z,8.32
2022-11-15T21:49:30.257Z,8.30
2022-11-15T21:51:58.624Z,8.20
2022-11-15T21:54:26.960Z,8.20
2022-11-15T21:56:55.265Z,8.20
2022-11-15T21:59:23.647Z,8.20
2022-11-15T22:02:10.381Z,8.10
2022-11-15T22:04:38.768Z,8.10
2022-11-15T22:07:07.195Z,8.10
2022-11-15T22:09:35.463Z,8.10
2022-11-15T22:12:03.944Z,8.10
2022-11-15T22:14:32.292Z,8.12
2022-11-15T22:17:00.602Z,8.18
2022-11-15T22:19:28.914Z,8.20
2022-11-15T22:21:57.235Z,8.18
2022-11-15T22:24:25.750Z,8.20
2022-11-15T22:26:54.046Z,8.24
2022-11-15T22:29:22.392Z,8.28
2022-11-15T22:31:50.675Z,8.20
2022-11-15T22:34:19.067Z,8.20
2022-11-15T22:37:18.353Z,8.22
2022-11-15T22:39:44.541Z,8.30
2022-11-15T22:42:13.511Z,8.30
2022-11-15T22:44:41.753Z,8.28
2022-11-15T22:47:10.114Z,8.30
2022-11-15T22:50:48.586Z,8.20
2022-11-15T22:53:17.982Z,8.22
2022-11-15T22:55:52.086Z,8.28
2022-11-15T22:58:21.884Z,8.30
2022-11-15T23:00:52.148Z,8.30
2022-11-15T23:03:20.901Z,8.30
2022-11-15T23:05:50.119Z,8.22
2022-11-15T23:08:19.405Z,8.26
2022-11-15T23:11:06.352Z,8.22
2022-11-15T23:13:34.809Z,8.28
2022-11-15T23:16:34.833Z,8.30
2022-11-15T23:19:06.884Z,8.22
2022-11-15T23:21:56.528Z,8.22
2022-11-15T23:24:25.221Z,8.20
2022-11-15T23:26:57.031Z,8.28
2022-11-15T23:29:26.728Z,8.30
2022-11-15T23:32:14.988Z,8.30
2022-11-15T23:34:45.424Z,8.30
2022-11-15T23:37:15.549Z,8.32
2022-11-15T23:39:43.768Z,8.32
2022-11-15T23:42:20.174Z,8.40
2022-11-15T23:44:51.047Z,8.40
2022-11-15T23:47:20.137Z,8.36
2022-11-15T23:49:48.574Z,8.30
2022-11-15T23:52:17.406Z,8.30
2022-11-15T23:54:45.758Z,8.30
2022-11-15T23:57:14.125Z,8.30
2022-11-15T23:59:43.930Z,8.30
